createdAt,value
2023-03-28T00:00:25.956Z,5.30
2023-03-28T00:01:29.769Z,4.45
2023-03-28T00:02:32.014Z,4.40
2023-03-28T00:03:37.115Z,4.50
2023-03-28T00:04:41.046Z,4.80
2023-03-28T00:05:46.839Z,4.40
2023-03-28T00:06:52.127Z,6.10
2023-03-28T00:07:55.853Z,4.30
2023-03-28T00:08:58.086Z,4.00
2023-03-28T00:10:00.151Z,4.50
2023-03-28T00:11:12.977Z,4.40
2023-03-28T00:12:17.356Z,4.30
2023-03-28T00:13:22.109Z,4.60
2023-03-28T00:14:25.141Z,3.90
2023-03-28T00:15:27.375Z,5.20
2023-03-28T00:16:33.064Z,3.80
2023-03-28T00:17:37.186Z,5.10
2023-03-28T00:18:42.989Z,5.50
2023-03-28T00:20:01.097Z,4.60
2023-03-28T00:21:05.731Z,5.30
2023-03-28T00:22:10.392Z,5.30
2023-03-28T00:23:15.204Z,5.30
2023-03-28T00:25:33.389Z,5.00
2023-03-28T00:26:36.727Z,5.50
2023-03-28T00:27:38.897Z,4.64
2023-03-28T00:28:40.950Z,4.60
2023-03-28T00:29:48.700Z,4.50
2023-03-28T00:30:53.483Z,4.40
2023-03-28T00:31:55.833Z,4.60
2023-03-28T00:34:13.538Z,4.30
2023-03-28T00:35:17.900Z,6.00
2023-03-28T00:36:27.023Z,3.80
2023-03-28T00:37:34.467Z,4.90
2023-03-28T00:38:41.097Z,4.20
2023-03-28T00:39:44.394Z,4.60
2023-03-28T00:40:46.841Z,5.00
2023-03-28T00:41:49.144Z,4.70
2023-03-28T00:42:51.340Z,4.50
2023-03-28T00:43:55.011Z,3.70
2023-03-28T00:44:57.992Z,4.20
2023-03-28T00:46:09.089Z,4.20
2023-03-28T00:47:39.358Z,4.70
2023-03-28T00:48:45.233Z,4.20
2023-03-28T00:49:49.086Z,3.80
2023-03-28T00:50:52.496Z,4.00
2023-03-28T00:52:00.410Z,4.60
2023-03-28T00:53:17.772Z,4.20
2023-03-28T00:54:21.273Z,4.30
2023-03-28T00:56:37.393Z,4.80
2023-03-28T00:57:40.106Z,4.00
2023-03-28T00:58:44.139Z,3.90
2023-03-28T00:59:47.053Z,4.00
2023-03-28T01:00:50.040Z,4.45
2023-03-28T01:01:53.328Z,4.50
2023-03-28T01:02:56.575Z,4.20
2023-03-28T01:03:59.769Z,4.20
2023-03-28T01:05:02.580Z,3.60
2023-03-28T01:06:07.937Z,4.10
2023-03-28T01:07:12.550Z,4.20
2023-03-28T01:08:24.765Z,3.82
2023-03-28T01:09:28.859Z,3.70
2023-03-28T01:10:33.234Z,4.70
2023-03-28T01:11:37.354Z,4.00
2023-03-28T01:12:42.126Z,4.10
2023-03-28T01:13:49.360Z,2.60
2023-03-28T01:14:52.409Z,3.10
2023-03-28T01:15:55.307Z,4.30
2023-03-28T01:16:57.852Z,3.80
2023-03-28T01:18:01.343Z,4.70
2023-03-28T01:19:05.749Z,3.50
2023-03-28T01:20:32.466Z,4.60
2023-03-28T01:22:03.173Z,3.50
2023-03-28T01:24:40.776Z,4.80
2023-03-28T01:26:13.061Z,4.40
2023-03-28T01:27:31.687Z,4.10
2023-03-28T01:28:59.042Z,4.30
2023-03-28T01:30:13.061Z,4.20
2023-03-28T01:31:56.984Z,3.50
2023-03-28T01:35:09.406Z,4.60
2023-03-28T01:36:35.556Z,1.80
2023-03-28T01:37:47.615Z,3.90
2023-03-28T01:39:08.909Z,4.30
2023-03-28T01:41:43.245Z,4.80
2023-03-28T01:43:10.528Z,3.30
2023-03-28T01:44:22.456Z,4.00
2023-03-28T01:45:44.991Z,4.10
2023-03-28T01:47:02.742Z,4.20
2023-03-28T01:48:09.105Z,2.90
2023-03-28T01:50:49.559Z,5.30
2023-03-28T01:52:11.070Z,3.70
2023-03-28T01:53:29.198Z,4.10
2023-03-28T01:55:01.034Z,4.30
2023-03-28T01:58:13.279Z,3.90
2023-03-28T02:00:44.361Z,2.90
2023-03-28T02:01:53.364Z,3.70
2023-03-28T02:02:59.447Z,3.40
2023-03-28T02:04:20.377Z,3.70
2023-03-28T02:05:15.808Z,3.40
2023-03-28T02:06:20.614Z,4.50
2023-03-28T02:07:24.754Z,4.60
2023-03-28T02:08:40.463Z,3.40
2023-03-28T02:09:48.336Z,4.30
2023-03-28T02:11:02.585Z,4.60
2023-03-28T02:12:15.551Z,4.00
2023-03-28T02:14:53.422Z,4.60
2023-03-28T02:15:59.012Z,4.50
2023-03-28T02:17:06.453Z,4.60
2023-03-28T02:18:38.547Z,3.10
2023-03-28T02:20:03.362Z,3.60
2023-03-28T02:21:11.102Z,3.80
2023-03-28T02:23:44.492Z,5.20
2023-03-28T02:25:06.429Z,4.60
2023-03-28T02:26:24.593Z,4.30
2023-03-28T02:27:28.681Z,4.50
2023-03-28T02:28:36.438Z,4.10
2023-03-28T02:29:43.919Z,4.20
2023-03-28T02:30:48.348Z,4.70
2023-03-28T02:31:51.075Z,4.60
2023-03-28T02:33:05.215Z,4.50
2023-03-28T02:34:09.086Z,4.50
2023-03-28T02:35:11.328Z,5.00
2023-03-28T02:36:22.814Z,4.70
2023-03-28T02:37:37.740Z,4.00
2023-03-28T02:39:11.107Z,4.70
2023-03-28T02:40:48.119Z,4.10
2023-03-28T02:42:16.630Z,4.90
2023-03-28T02:45:16.468Z,5.40
2023-03-28T02:46:31.607Z,5.00
2023-03-28T02:47:40.790Z,4.40
2023-03-28T02:48:55.624Z,4.50
2023-03-28T02:52:38.957Z,6.00
2023-03-28T02:55:13.482Z,5.80
2023-03-28T02:56:20.802Z,5.40
2023-03-28T02:57:37.055Z,5.40
2023-03-28T03:00:18.322Z,5.90
2023-03-28T03:01:22.831Z,5.40
2023-03-28T03:02:25.292Z,6.70
2023-03-28T03:03:27.751Z,6.20
2023-03-28T03:04:30.924Z,5.70
2023-03-28T03:05:33.832Z,6.00
2023-03-28T03:06:36.370Z,6.91
2023-03-28T03:07:38.836Z,7.10
2023-03-28T03:08:40.900Z,6.90
2023-03-28T03:09:45.916Z,7.20
2023-03-28T03:10:48.201Z,8.10
2023-03-28T03:11:50.391Z,6.80
2023-03-28T03:12:53.066Z,7.00
2023-03-28T03:13:56.090Z,6.60
2023-03-28T03:14:58.727Z,6.50
2023-03-28T03:16:19.790Z,7.50
2023-03-28T03:17:22.694Z,6.40
2023-03-28T03:18:24.880Z,6.90
2023-03-28T03:19:27.527Z,0.00
2023-03-28T03:20:30.485Z,6.18
2023-03-28T03:21:32.658Z,4.40
2023-03-28T03:22:35.247Z,2.00
2023-03-28T03:23:37.425Z,5.20
2023-03-28T03:24:40.840Z,5.90
2023-03-28T03:25:43.534Z,5.10
2023-03-28T03:26:50.707Z,5.10
2023-03-28T03:27:53.004Z,5.80
2023-03-28T03:28:55.345Z,5.10
2023-03-28T03:29:59.487Z,4.60
2023-03-28T03:31:04.430Z,4.70
2023-03-28T03:32:23.204Z,4.00
2023-03-28T03:33:27.212Z,4.60
2023-03-28T03:34:32.272Z,4.70
2023-03-28T03:35:34.533Z,5.40
2023-03-28T03:36:39.006Z,5.30
2023-03-28T03:37:42.346Z,5.10
2023-03-28T03:38:46.516Z,5.40
2023-03-28T03:39:50.918Z,5.30
2023-03-28T03:40:55.291Z,5.00
2023-03-28T03:41:57.477Z,5.60
2023-03-28T03:43:00.017Z,5.50
2023-03-28T03:44:03.345Z,6.30
2023-03-28T03:45:07.295Z,5.90
2023-03-28T03:46:10.327Z,5.90
2023-03-28T03:47:14.614Z,5.90
2023-03-28T03:48:16.675Z,5.60
2023-03-28T03:49:18.849Z,5.10
2023-03-28T03:50:22.331Z,5.40
2023-03-28T03:51:24.600Z,5.70
2023-03-28T03:52:28.739Z,5.60
2023-03-28T03:53:33.863Z,5.60
2023-03-28T03:54:38.442Z,5.80
2023-03-28T03:55:41.526Z,5.80
2023-03-28T03:56:43.825Z,6.50
2023-03-28T03:57:46.710Z,6.36
2023-03-28T03:58:49.167Z,6.20
2023-03-28T03:59:51.862Z,5.80
2023-03-28T04:00:55.786Z,4.70
2023-03-28T04:02:00.443Z,4.90
2023-03-28T04:03:24.539Z,5.30
2023-03-28T04:04:22.726Z,5.50
2023-03-28T04:05:32.436Z,5.30
2023-03-28T04:06:37.339Z,6.10
2023-03-28T04:07:41.324Z,5.20
2023-03-28T04:09:54.526Z,5.80
2023-03-28T04:10:58.744Z,5.30
2023-03-28T04:12:02.205Z,5.70
2023-03-28T04:13:05.341Z,4.90
2023-03-28T04:14:08.815Z,5.50
2023-03-28T04:15:11.292Z,4.90
2023-03-28T04:17:28.477Z,5.10
2023-03-28T04:18:32.762Z,5.00
2023-03-28T04:19:35.980Z,5.20
2023-03-28T04:20:38.174Z,4.60
2023-03-28T04:21:46.171Z,4.10
2023-03-28T04:22:48.402Z,4.80
2023-03-28T04:23:52.441Z,4.30
2023-03-28T04:24:59.315Z,4.70
2023-03-28T04:26:03.614Z,4.30
2023-03-28T04:27:17.145Z,4.40
2023-03-28T04:28:22.563Z,4.20
2023-03-28T04:29:30.419Z,4.70
2023-03-28T04:31:50.801Z,4.90
2023-03-28T04:33:04.028Z,5.10
2023-03-28T04:34:08.212Z,5.30
2023-03-28T04:35:12.213Z,4.50
2023-03-28T04:36:15.580Z,4.55
2023-03-28T04:37:19.672Z,4.90
2023-03-28T04:38:27.972Z,5.10
2023-03-28T04:39:34.212Z,4.20
2023-03-28T04:40:55.621Z,5.20
2023-03-28T04:41:59.820Z,4.70
2023-03-28T04:43:04.150Z,4.20
2023-03-28T04:44:08.599Z,5.40
2023-03-28T04:45:12.673Z,5.90
2023-03-28T04:46:16.417Z,4.90
2023-03-28T04:47:19.390Z,5.27
2023-03-28T04:48:23.012Z,4.20
2023-03-28T04:49:25.875Z,3.80
2023-03-28T04:50:28.201Z,4.36
2023-03-28T04:51:31.591Z,4.10
2023-03-28T04:52:34.936Z,4.60
2023-03-28T04:53:37.081Z,5.20
2023-03-28T04:54:57.900Z,4.30
2023-03-28T04:56:00.701Z,5.20
2023-03-28T04:57:05.078Z,5.90
2023-03-28T04:58:19.900Z,4.60
2023-03-28T04:59:23.035Z,4.30
2023-03-28T05:00:27.624Z,5.50
2023-03-28T05:01:32.845Z,5.00
2023-03-28T05:02:38.016Z,5.70
2023-03-28T05:03:41.389Z,6.10
2023-03-28T05:04:44.785Z,5.70
2023-03-28T05:05:49.310Z,4.40
2023-03-28T05:06:53.554Z,4.70
2023-03-28T05:07:59.715Z,5.30
2023-03-28T05:09:02.117Z,5.40
2023-03-28T05:10:07.140Z,5.90
2023-03-28T05:11:11.217Z,5.60
2023-03-28T05:12:14.517Z,5.60
2023-03-28T05:13:30.688Z,5.30
2023-03-28T05:14:37.755Z,6.40
2023-03-28T05:15:42.596Z,5.70
2023-03-28T05:16:59.340Z,6.50
2023-03-28T05:18:21.577Z,6.50
2023-03-28T05:19:23.634Z,6.10
2023-03-28T05:20:32.218Z,6.70
2023-03-28T05:21:35.966Z,6.10
2023-03-28T05:22:38.207Z,5.20
2023-03-28T05:23:40.954Z,3.10
2023-03-28T05:24:45.041Z,6.80
2023-03-28T05:25:51.075Z,6.60
2023-03-28T05:26:53.799Z,5.80
2023-03-28T05:27:58.334Z,7.40
2023-03-28T05:29:01.165Z,5.20
2023-03-28T05:31:22.321Z,6.60
2023-03-28T05:32:28.412Z,5.90
2023-03-28T05:33:32.395Z,6.80
2023-03-28T05:34:35.050Z,6.40
2023-03-28T05:35:38.237Z,6.60
2023-03-28T05:36:41.071Z,6.91
2023-03-28T05:37:46.951Z,5.80
2023-03-28T05:38:49.979Z,6.70
2023-03-28T05:39:52.740Z,5.10
2023-03-28T05:40:55.208Z,6.30
2023-03-28T05:41:59.258Z,5.45
2023-03-28T05:43:01.466Z,2.50
2023-03-28T05:44:03.942Z,6.30
2023-03-28T05:45:09.898Z,6.30
2023-03-28T05:46:15.562Z,5.70
2023-03-28T05:47:19.392Z,3.90
2023-03-28T05:48:21.729Z,6.10
2023-03-28T05:49:24.797Z,6.20
2023-03-28T05:50:27.884Z,6.00
2023-03-28T05:51:32.567Z,6.70
2023-03-28T05:52:57.293Z,4.82
2023-03-28T05:53:59.510Z,6.10
2023-03-28T05:55:01.962Z,5.60
2023-03-28T05:56:08.289Z,6.20
2023-03-28T05:57:10.482Z,6.70
2023-03-28T05:58:13.373Z,2.60
2023-03-28T05:59:16.237Z,5.30
2023-03-28T06:00:20.683Z,5.50
2023-03-28T06:01:24.955Z,6.10
2023-03-28T06:02:28.855Z,5.60
2023-03-28T06:03:33.011Z,5.40
2023-03-28T06:04:37.009Z,6.20
2023-03-28T06:05:39.744Z,6.20
2023-03-28T06:06:48.940Z,6.50
2023-03-28T06:07:53.066Z,5.20
2023-03-28T06:08:56.481Z,5.50
2023-03-28T06:09:59.205Z,5.60
2023-03-28T06:11:02.584Z,5.20
2023-03-28T06:12:21.916Z,6.00
2023-03-28T06:13:25.965Z,5.20
2023-03-28T06:14:48.242Z,5.20
2023-03-28T06:15:59.106Z,5.40
2023-03-28T06:17:06.675Z,5.50
2023-03-28T06:18:11.301Z,6.40
2023-03-28T06:19:18.321Z,5.80
2023-03-28T06:20:23.074Z,5.70
2023-03-28T06:21:27.337Z,5.60
2023-03-28T06:22:30.818Z,6.50
2023-03-28T06:23:34.678Z,5.90
2023-03-28T06:24:37.669Z,5.70
2023-03-28T06:25:39.872Z,6.50
2023-03-28T06:26:43.128Z,6.50
2023-03-28T06:27:48.158Z,6.50
2023-03-28T06:28:50.476Z,6.20
2023-03-28T06:29:54.591Z,4.90
2023-03-28T06:30:57.664Z,6.10
2023-03-28T06:32:01.371Z,5.80
2023-03-28T06:34:12.881Z,5.50
2023-03-28T06:35:30.453Z,4.70
2023-03-28T06:36:32.961Z,5.80
2023-03-28T06:37:35.989Z,5.40
2023-03-28T06:38:40.242Z,5.30
2023-03-28T06:39:44.086Z,5.45
2023-03-28T06:41:55.237Z,6.10
2023-03-28T06:42:59.425Z,6.20
2023-03-28T06:44:04.648Z,6.00
2023-03-28T06:45:25.231Z,4.90
2023-03-28T06:46:29.493Z,5.40
2023-03-28T06:47:31.760Z,5.10
2023-03-28T06:48:36.256Z,5.00
2023-03-28T06:50:51.938Z,5.70
2023-03-28T06:51:55.955Z,5.10
2023-03-28T06:52:58.393Z,5.30
2023-03-28T06:54:01.474Z,5.73
2023-03-28T06:55:06.415Z,5.70
2023-03-28T06:56:11.154Z,5.30
2023-03-28T06:57:14.390Z,5.50
2023-03-28T06:58:18.573Z,5.70
2023-03-28T06:59:22.609Z,5.30
2023-03-28T07:00:26.859Z,6.70
2023-03-28T07:01:48.332Z,5.60
2023-03-28T07:02:53.518Z,5.40
2023-03-28T07:05:08.470Z,6.80
2023-03-28T07:06:12.124Z,6.30
2023-03-28T07:07:14.239Z,5.80
2023-03-28T07:08:18.072Z,5.40
2023-03-28T07:09:30.828Z,5.10
2023-03-28T07:10:40.011Z,6.00
2023-03-28T07:11:42.734Z,6.10
2023-03-28T07:12:46.962Z,5.70
2023-03-28T07:13:50.826Z,5.90
2023-03-28T07:14:55.769Z,5.00
2023-03-28T07:16:06.075Z,5.60
2023-03-28T07:17:08.694Z,5.30
2023-03-28T07:18:14.159Z,5.60
2023-03-28T07:19:16.520Z,5.90
2023-03-28T07:20:23.893Z,6.50
2023-03-28T07:21:26.440Z,5.40
2023-03-28T07:22:30.572Z,6.90
2023-03-28T07:23:32.887Z,5.60
2023-03-28T07:24:36.421Z,5.60
2023-03-28T07:25:43.505Z,5.80
2023-03-28T07:26:45.783Z,6.10
2023-03-28T07:27:48.086Z,5.90
2023-03-28T07:28:50.390Z,6.10
2023-03-28T07:29:53.646Z,5.20
2023-03-28T07:30:57.927Z,5.90
2023-03-28T07:32:09.100Z,1.30
2023-03-28T07:33:19.477Z,5.90
2023-03-28T07:34:17.854Z,4.20
2023-03-28T07:35:23.954Z,5.30
2023-03-28T07:36:28.665Z,5.70
2023-03-28T07:37:34.154Z,5.00
2023-03-28T07:38:45.424Z,5.50
2023-03-28T07:39:49.702Z,5.20
2023-03-28T07:40:54.811Z,4.60
2023-03-28T07:41:57.160Z,4.80
2023-03-28T07:43:02.396Z,4.10
2023-03-28T07:44:04.725Z,5.00
2023-03-28T07:45:08.898Z,4.50
2023-03-28T07:46:16.290Z,3.80
2023-03-28T07:47:18.572Z,5.10
2023-03-28T07:48:20.952Z,4.50
2023-03-28T07:49:23.027Z,5.10
2023-03-28T07:50:26.764Z,4.50
2023-03-28T07:51:30.993Z,5.70
2023-03-28T07:52:35.554Z,4.40
2023-03-28T07:53:38.136Z,4.60
2023-03-28T07:54:40.491Z,5.40
2023-03-28T07:55:54.325Z,5.00
2023-03-28T07:56:54.178Z,4.90
2023-03-28T07:57:59.979Z,4.30
2023-03-28T07:59:06.357Z,3.90
2023-03-28T08:00:29.873Z,4.90
2023-03-28T08:02:10.636Z,4.80
2023-03-28T08:03:19.464Z,5.30
2023-03-28T08:04:22.837Z,5.00
2023-03-28T08:05:42.720Z,3.70
2023-03-28T08:06:45.286Z,4.40
2023-03-28T08:07:47.503Z,4.70
2023-03-28T08:08:49.730Z,4.50
2023-03-28T08:09:58.394Z,4.20
2023-03-28T08:11:03.869Z,4.20
2023-03-28T08:12:06.956Z,4.30
2023-03-28T08:13:09.255Z,3.80
2023-03-28T08:14:16.155Z,4.20
2023-03-28T08:15:18.470Z,1.70
2023-03-28T08:16:22.584Z,4.40
2023-03-28T08:17:29.481Z,4.40
2023-03-28T08:18:34.221Z,3.70
2023-03-28T08:19:37.725Z,3.70
2023-03-28T08:20:50.462Z,3.90
2023-03-28T08:21:56.264Z,3.50
2023-03-28T08:23:00.097Z,3.70
2023-03-28T08:24:34.917Z,3.60
2023-03-28T08:25:29.011Z,4.20
2023-03-28T08:26:32.075Z,4.20
2023-03-28T08:27:36.000Z,2.91
2023-03-28T08:28:40.029Z,3.80
2023-03-28T08:29:42.690Z,3.90
2023-03-28T08:30:45.320Z,4.60
2023-03-28T08:31:48.047Z,3.20
2023-03-28T08:32:54.972Z,3.70
2023-03-28T08:34:00.476Z,2.90
2023-03-28T08:36:20.316Z,4.20
2023-03-28T08:37:22.668Z,3.36
2023-03-28T08:38:24.997Z,4.70
2023-03-28T08:39:30.475Z,3.60
2023-03-28T08:40:37.725Z,3.80
2023-03-28T08:41:47.506Z,3.50
2023-03-28T08:44:29.396Z,4.50
2023-03-28T08:45:52.886Z,3.90
2023-03-28T08:47:13.127Z,4.50
2023-03-28T08:48:30.532Z,4.20
2023-03-28T08:49:38.219Z,4.30
2023-03-28T08:50:53.221Z,4.40
2023-03-28T08:52:01.289Z,5.00
2023-03-28T08:53:14.469Z,4.80
2023-03-28T08:54:32.832Z,4.40
2023-03-28T08:55:42.730Z,4.70
2023-03-28T08:56:51.893Z,5.10
2023-03-28T08:57:55.163Z,5.50
2023-03-28T09:00:35.086Z,6.80
2023-03-28T09:01:39.006Z,5.10
2023-03-28T09:02:43.299Z,5.27
2023-03-28T09:03:48.893Z,5.50
2023-03-28T09:05:05.130Z,4.80
2023-03-28T09:06:08.266Z,7.00
2023-03-28T09:07:35.236Z,5.80
2023-03-28T09:09:07.134Z,6.50
2023-03-28T09:10:31.074Z,4.20
2023-03-28T09:11:46.959Z,6.00
2023-03-28T09:12:58.687Z,6.30
2023-03-28T09:14:31.827Z,5.60
2023-03-28T09:16:04.065Z,6.60
2023-03-28T09:17:25.597Z,5.20
2023-03-28T09:18:56.498Z,5.00
2023-03-28T09:21:50.372Z,5.80
2023-03-28T09:24:42.456Z,5.70
2023-03-28T09:27:28.621Z,6.10
2023-03-28T09:28:55.793Z,5.30
2023-03-28T09:31:14.378Z,6.10
2023-03-28T09:32:24.537Z,4.90
2023-03-28T09:33:33.814Z,2.90
2023-03-28T09:34:39.535Z,3.90
2023-03-28T09:35:46.646Z,3.70
2023-03-28T09:36:55.526Z,4.00
2023-03-28T09:38:05.095Z,4.00
2023-03-28T09:39:30.541Z,3.70
2023-03-28T09:40:44.739Z,3.00
2023-03-28T09:42:15.136Z,3.40
2023-03-28T09:46:00.020Z,4.30
2023-03-28T09:47:12.670Z,3.20
2023-03-28T09:49:34.395Z,3.60
2023-03-28T09:50:39.980Z,2.70
2023-03-28T09:51:43.358Z,2.00
2023-03-28T09:52:48.601Z,2.30
2023-03-28T09:53:53.004Z,1.80
2023-03-28T09:54:57.167Z,2.70
2023-03-28T09:57:16.515Z,2.50
2023-03-28T09:58:23.148Z,2.90
2023-03-28T09:59:40.203Z,2.00
2023-03-28T10:02:04.278Z,3.00
2023-03-28T10:03:22.970Z,2.70
2023-03-28T10:04:35.866Z,2.30
2023-03-28T10:05:52.895Z,1.90
2023-03-28T10:07:13.193Z,2.40
2023-03-28T10:08:37.621Z,2.30
2023-03-28T10:09:54.976Z,2.00
2023-03-28T10:11:02.944Z,1.40
2023-03-28T10:12:11.209Z,2.20
2023-03-28T10:13:13.722Z,2.40
2023-03-28T10:14:37.886Z,2.80
2023-03-28T10:15:48.195Z,2.50
2023-03-28T10:17:22.649Z,2.70
2023-03-28T10:18:27.738Z,1.70
2023-03-28T10:20:49.100Z,3.00
2023-03-28T10:21:53.635Z,1.50
2023-03-28T10:24:16.243Z,2.80
2023-03-28T10:26:41.811Z,2.70
2023-03-28T10:27:48.404Z,2.50
2023-03-28T10:28:52.668Z,2.80
2023-03-28T10:29:58.688Z,2.10
2023-03-28T10:31:05.945Z,1.70
2023-03-28T10:33:29.853Z,2.00
2023-03-28T10:36:15.080Z,2.10
2023-03-28T10:37:27.189Z,2.10
2023-03-28T10:41:26.272Z,1.70
2023-03-28T10:42:50.207Z,1.70
2023-03-28T10:43:56.852Z,1.40
2023-03-28T10:46:49.770Z,0.30
2023-03-28T10:47:59.481Z,1.60
2023-03-28T10:49:05.322Z,1.10
2023-03-28T10:51:34.008Z,1.70
2023-03-28T10:52:43.695Z,1.30
2023-03-28T10:54:08.101Z,1.10
2023-03-28T10:55:17.775Z,1.00
2023-03-28T10:56:50.804Z,1.10
2023-03-28T10:58:05.999Z,1.40
2023-03-28T10:59:13.788Z,1.50
2023-03-28T11:02:01.991Z,1.90
2023-03-28T11:03:08.624Z,1.50
2023-03-28T11:04:33.438Z,1.30
2023-03-28T11:06:59.869Z,2.40
2023-03-28T11:09:51.229Z,1.90
2023-03-28T11:11:24.432Z,1.50
2023-03-28T11:12:53.985Z,1.50
2023-03-28T11:13:54.111Z,1.20
2023-03-28T11:15:24.874Z,0.90
2023-03-28T11:17:01.461Z,1.00
2023-03-28T11:18:37.397Z,1.80
2023-03-28T11:19:58.374Z,1.80
2023-03-28T11:21:21.343Z,1.30
2023-03-28T11:24:04.689Z,1.40
2023-03-28T11:25:33.775Z,1.50
2023-03-28T11:27:16.022Z,1.90
2023-03-28T11:28:25.135Z,1.60
2023-03-28T11:29:53.396Z,1.10
2023-03-28T11:31:01.043Z,1.00
2023-03-28T11:32:30.562Z,1.40
2023-03-28T11:34:11.786Z,1.50
2023-03-28T11:35:29.414Z,1.70
2023-03-28T11:36:52.368Z,1.40
2023-03-28T11:38:04.578Z,1.90
2023-03-28T11:39:21.522Z,1.60
2023-03-28T11:40:47.439Z,1.60
2023-03-28T11:41:52.758Z,1.80
2023-03-28T11:43:12.836Z,1.70
2023-03-28T11:45:52.178Z,1.80
2023-03-28T11:47:04.878Z,2.20
2023-03-28T11:48:21.777Z,1.80
2023-03-28T11:49:27.778Z,1.50
2023-03-28T11:51:03.479Z,1.50
2023-03-28T11:52:26.652Z,1.60
2023-03-28T11:53:45.978Z,1.10
2023-03-28T11:55:08.336Z,1.80
2023-03-28T11:59:22.736Z,2.60
2023-03-28T12:00:42.497Z,2.00
2023-03-28T12:01:50.160Z,2.10
2023-03-28T12:02:59.423Z,2.20
2023-03-28T12:05:50.979Z,2.00
2023-03-28T12:07:06.553Z,1.60
2023-03-28T12:08:32.265Z,1.90
2023-03-28T12:10:10.621Z,1.80
2023-03-28T12:12:45.652Z,1.70
2023-03-28T12:14:01.335Z,2.30
2023-03-28T12:16:19.326Z,2.10
2023-03-28T12:17:29.312Z,0.60
2023-03-28T12:18:40.076Z,1.60
2023-03-28T12:19:46.006Z,1.80
2023-03-28T12:21:14.802Z,2.10
2023-03-28T12:24:08.589Z,2.80
2023-03-28T12:25:26.179Z,1.80
2023-03-28T12:26:50.062Z,2.00
2023-03-28T12:28:03.045Z,1.80
2023-03-28T12:30:47.741Z,2.50
2023-03-28T12:31:53.973Z,1.50
2023-03-28T12:33:02.503Z,2.00
2023-03-28T12:35:37.451Z,2.20
2023-03-28T12:38:26.000Z,2.00
2023-03-28T12:39:37.358Z,2.00
2023-03-28T12:41:02.695Z,1.40
2023-03-28T12:42:08.320Z,1.20
2023-03-28T12:43:13.870Z,1.20
2023-03-28T12:44:26.545Z,1.70
2023-03-28T12:46:48.956Z,0.00
2023-03-28T12:47:55.567Z,0.70
2023-03-28T12:50:32.703Z,1.80
2023-03-28T12:52:58.770Z,1.80
2023-03-28T12:54:18.030Z,1.60
2023-03-28T12:55:29.936Z,1.10
2023-03-28T12:57:47.140Z,2.50
2023-03-28T12:58:54.417Z,1.40
2023-03-28T13:00:22.230Z,1.30
2023-03-28T13:01:30.521Z,1.60
2023-03-28T13:02:56.047Z,1.50
2023-03-28T13:04:08.680Z,0.90
2023-03-28T13:08:34.710Z,1.90
2023-03-28T13:10:06.357Z,1.90
2023-03-28T13:11:21.212Z,1.40
2023-03-28T13:12:36.133Z,1.40
2023-03-28T13:13:59.303Z,1.20
2023-03-28T13:15:17.093Z,1.70
2023-03-28T13:16:24.945Z,1.80
2023-03-28T13:17:30.115Z,2.10
2023-03-28T13:18:36.122Z,1.70
2023-03-28T13:19:46.968Z,1.40
2023-03-28T13:22:01.637Z,2.10
2023-03-28T13:23:09.729Z,1.20
2023-03-28T13:24:27.753Z,1.90
2023-03-28T13:25:37.903Z,1.70
2023-03-28T13:27:01.669Z,1.80
2023-03-28T13:28:13.736Z,1.60
2023-03-28T13:29:16.594Z,1.70
2023-03-28T13:31:34.316Z,2.80
2023-03-28T13:32:41.568Z,1.30
2023-03-28T13:35:05.698Z,2.10
2023-03-28T13:36:11.492Z,1.60
2023-03-28T13:37:22.566Z,2.10
2023-03-28T13:38:33.342Z,1.60
2023-03-28T13:39:35.599Z,1.20
2023-03-28T13:40:47.783Z,1.80
2023-03-28T13:41:53.558Z,1.90
2023-03-28T13:43:00.527Z,1.90
2023-03-28T13:44:12.480Z,1.20
2023-03-28T13:46:34.532Z,2.70
2023-03-28T13:47:39.430Z,1.80
2023-03-28T13:48:53.984Z,1.70
2023-03-28T13:50:20.881Z,1.60
2023-03-28T13:51:25.840Z,1.60
2023-03-28T13:52:28.514Z,1.90
2023-03-28T13:53:44.293Z,1.40
2023-03-28T13:54:35.654Z,1.60
2023-03-28T13:55:37.956Z,1.30
2023-03-28T13:56:43.208Z,1.60
2023-03-28T13:57:45.908Z,1.40
2023-03-28T13:58:51.602Z,1.50
2023-03-28T14:03:21.022Z,1.30
2023-03-28T14:04:32.691Z,1.60
2023-03-28T14:06:40.955Z,1.70
2023-03-28T14:09:58.312Z,1.20
2023-03-28T14:11:02.837Z,1.00
2023-03-28T14:12:07.837Z,1.60
2023-03-28T14:14:35.701Z,1.80
2023-03-28T14:15:39.938Z,2.00
2023-03-28T14:16:46.837Z,2.10
2023-03-28T14:17:51.069Z,1.10
2023-03-28T14:18:54.602Z,1.00
2023-03-28T14:20:05.693Z,1.80
2023-03-28T14:21:08.540Z,1.90
2023-03-28T14:23:32.601Z,2.90
2023-03-28T14:24:36.083Z,1.70
2023-03-28T14:25:38.940Z,1.90
2023-03-28T14:26:42.047Z,1.80
2023-03-28T14:27:52.501Z,2.27
2023-03-28T14:29:07.187Z,1.80
2023-03-28T14:30:28.226Z,2.70
2023-03-28T14:31:35.863Z,1.80
2023-03-28T14:32:54.435Z,2.10
2023-03-28T14:33:57.997Z,2.20
2023-03-28T14:35:19.824Z,2.60
2023-03-28T14:36:22.017Z,3.60
2023-03-28T14:37:25.121Z,2.90
2023-03-28T14:38:30.257Z,3.00
2023-03-28T14:39:37.184Z,2.90
2023-03-28T14:40:42.003Z,2.20
2023-03-28T14:41:44.094Z,3.20
2023-03-28T14:42:54.709Z,3.20
2023-03-28T14:43:57.732Z,1.80
2023-03-28T14:44:59.864Z,2.60
2023-03-28T14:46:05.265Z,2.50
2023-03-28T14:47:10.714Z,2.90
2023-03-28T14:49:26.377Z,3.70
2023-03-28T14:50:31.534Z,3.27
2023-03-28T14:52:48.813Z,2.90
2023-03-28T14:53:51.813Z,3.10
2023-03-28T14:54:54.856Z,2.30
2023-03-28T14:57:17.668Z,2.90
2023-03-28T14:58:21.515Z,2.60
2023-03-28T14:59:27.358Z,2.10
2023-03-28T15:00:39.690Z,2.30
2023-03-28T15:01:44.108Z,1.90
2023-03-28T15:02:47.007Z,1.30
2023-03-28T15:03:58.373Z,2.00
2023-03-28T15:05:07.416Z,1.80
2023-03-28T15:06:18.737Z,1.70
2023-03-28T15:07:28.495Z,2.00
2023-03-28T15:08:38.748Z,1.30
2023-03-28T15:09:41.509Z,1.60
2023-03-28T15:10:49.995Z,0.80
2023-03-28T15:11:52.091Z,2.00
2023-03-28T15:13:15.200Z,1.50
2023-03-28T15:15:36.678Z,1.60
2023-03-28T15:16:41.427Z,1.50
2023-03-28T15:17:44.774Z,1.30
2023-03-28T15:20:01.331Z,1.90
2023-03-28T15:21:06.284Z,1.20
2023-03-28T15:22:13.789Z,1.00
2023-03-28T15:23:25.943Z,2.00
2023-03-28T15:24:28.512Z,2.40
2023-03-28T15:25:31.528Z,1.40
2023-03-28T15:26:36.703Z,1.70
2023-03-28T15:27:40.195Z,0.80
2023-03-28T15:28:42.865Z,2.20
2023-03-28T15:29:44.924Z,1.70
2023-03-28T15:30:48.917Z,1.40
2023-03-28T15:31:54.140Z,0.60
2023-03-28T15:34:13.028Z,1.20
2023-03-28T15:35:37.664Z,1.50
2023-03-28T15:37:55.483Z,0.60
2023-03-28T15:39:19.768Z,1.00
2023-03-28T15:40:24.167Z,1.10
2023-03-28T15:42:57.828Z,0.30
2023-03-28T15:44:28.620Z,0.00
2023-03-28T15:45:39.695Z,0.20
2023-03-28T15:46:42.596Z,0.60
2023-03-28T15:47:47.048Z,0.50
2023-03-28T15:48:49.273Z,0.90
2023-03-28T15:50:02.792Z,0.60
2023-03-28T15:51:09.723Z,0.30
2023-03-28T15:52:21.254Z,0.40
2023-03-28T15:53:26.821Z,1.00
2023-03-28T15:54:31.772Z,0.00
2023-03-28T15:55:34.456Z,0.80
2023-03-28T15:56:36.855Z,0.70
2023-03-28T15:57:38.985Z,0.80
2023-03-28T15:58:44.847Z,0.50
2023-03-28T15:59:50.232Z,0.20
2023-03-28T16:00:54.125Z,0.50
2023-03-28T16:03:31.506Z,0.70
2023-03-28T16:04:34.182Z,0.80
2023-03-28T16:05:37.760Z,0.60
2023-03-28T16:06:42.721Z,0.00
2023-03-28T16:07:47.844Z,0.50
2023-03-28T16:08:59.699Z,1.00
2023-03-28T16:10:02.731Z,0.70
2023-03-28T16:11:10.483Z,0.70
2023-03-28T16:12:14.199Z,0.70
2023-03-28T16:13:20.294Z,0.00
2023-03-28T16:15:45.655Z,1.00
2023-03-28T16:16:54.698Z,0.00
2023-03-28T16:17:58.713Z,0.10
2023-03-28T16:20:20.827Z,0.30
2023-03-28T16:21:25.133Z,0.20
2023-03-28T16:22:31.074Z,0.60
2023-03-28T16:23:34.358Z,1.10
2023-03-28T16:24:38.626Z,0.80
2023-03-28T16:25:44.940Z,1.50
2023-03-28T16:26:49.612Z,0.70
2023-03-28T16:27:51.940Z,0.80
2023-03-28T16:28:54.026Z,0.90
2023-03-28T16:29:57.108Z,0.90
2023-03-28T16:30:59.763Z,1.10
2023-03-28T16:32:02.489Z,1.00
2023-03-28T16:33:06.185Z,0.30
2023-03-28T16:34:10.190Z,0.50
2023-03-28T16:35:14.062Z,0.30
2023-03-28T16:36:16.231Z,0.90
2023-03-28T16:37:19.413Z,1.00
2023-03-28T16:38:22.429Z,1.10
2023-03-28T16:39:24.575Z,0.50
2023-03-28T16:40:29.454Z,0.40
2023-03-28T16:41:32.876Z,0.80
2023-03-28T16:42:35.670Z,0.90
2023-03-28T16:43:37.919Z,0.64
2023-03-28T16:44:42.073Z,0.60
2023-03-28T16:45:50.726Z,0.60
2023-03-28T16:46:54.066Z,0.10
2023-03-28T16:47:56.660Z,0.70
2023-03-28T16:49:00.273Z,0.73
2023-03-28T16:50:04.232Z,0.20
2023-03-28T16:51:06.710Z,0.70
2023-03-28T16:52:09.216Z,0.50
2023-03-28T16:53:11.833Z,0.10
2023-03-28T16:54:14.008Z,0.00
2023-03-28T16:55:17.764Z,0.50
2023-03-28T16:56:20.062Z,0.10
2023-03-28T16:57:22.757Z,0.50
2023-03-28T16:58:25.828Z,0.20
2023-03-28T16:59:28.912Z,1.00
2023-03-28T17:00:31.612Z,0.40
2023-03-28T17:01:33.878Z,0.00
2023-03-28T17:02:36.581Z,0.70
2023-03-28T17:03:39.216Z,0.20
2023-03-28T17:04:42.008Z,0.20
2023-03-28T17:05:44.159Z,0.00
2023-03-28T17:06:47.743Z,0.20
2023-03-28T17:07:49.861Z,0.50
2023-03-28T17:08:52.931Z,0.00
2023-03-28T17:09:55.287Z,0.40